sensor_id;sensor_type;location;lat;lon;timestamp;pressure;altitude;pressure_sealevel;temperature;humidity
23059;BME280;30585;51.502;7.218;2022-08-14T00:01:02;155706.16;;;21.91;56.65
23059;BME280;30585;51.502;7.218;2022-08-14T00:03:37;155687.94;;;21.84;57.88
23059;BME280;30585;51.502;7.218;2022-08-14T00:06:07;155671.00;;;21.77;57.18
23059;BME280;30585;51.502;7.218;2022-08-14T00:08:50;155665.78;;;21.75;56.64
23059;BME280;30585;51.502;7.218;2022-08-14T00:11:18;155647.59;;;21.68;57.32
23059;BME280;30585;51.502;7.218;2022-08-14T00:13:46;155659.28;;;21.72;57.49
23059;BME280;30585;51.502;7.218;2022-08-14T00:16:20;155618.88;;;21.56;58.79
23059;BME280;30585;51.502;7.218;2022-08-14T00:19:08;155639.75;;;21.64;59.02
23059;BME280;30585;51.502;7.218;2022-08-14T00:21:47;155595.44;;;21.47;59.57
23059;BME280;30585;51.502;7.218;2022-08-14T00:24:16;155604.56;;;21.51;59.43
23059;BME280;30585;51.502;7.218;2022-08-14T00:26:54;155592.84;;;21.46;59.44
23059;BME280;30585;51.502;7.218;2022-08-14T00:29:22;155579.84;;;21.41;60.43
23059;BME280;30585;51.502;7.218;2022-08-14T00:31:53;155527.78;;;21.20;61.89
23059;BME280;30585;51.502;7.218;2022-08-14T00:34:22;155547.31;;;21.28;60.60
23059;BME280;30585;51.502;7.218;2022-08-14T00:37:10;155546.00;;;21.27;61.81
23059;BME280;30585;51.502;7.218;2022-08-14T00:39:38;155551.22;;;21.29;61.60
23059;BME280;30585;51.502;7.218;2022-08-14T00:42:08;155522.56;;;21.18;63.34
23059;BME280;30585;51.502;7.218;2022-08-14T00:44:56;155471.84;;;20.98;65.71
23059;BME280;30585;51.502;7.218;2022-08-14T00:47:25;155415.91;;;20.76;65.00
23059;BME280;30585;51.502;7.218;2022-08-14T00:49:54;155384.63;;;20.63;66.24
23059;BME280;30585;51.502;7.218;2022-08-14T00:52:24;155357.31;;;20.52;67.86
23059;BME280;30585;51.502;7.218;2022-08-14T00:54:52;155332.56;;;20.43;68.18
23059;BME280;30585;51.502;7.218;2022-08-14T00:57:25;155319.59;;;20.37;68.09
23059;BME280;30585;51.502;7.218;2022-08-14T00:59:54;155254.53;;;20.12;69.70
23059;BME280;30585;51.502;7.218;2022-08-14T01:02:24;155223.34;;;19.99;70.25
23059;BME280;30585;51.502;7.218;2022-08-14T01:04:58;155225.94;;;20.00;69.27
23059;BME280;30585;51.502;7.218;2022-08-14T01:07:27;155194.72;;;19.88;70.10
23059;BME280;30585;51.502;7.218;2022-08-14T01:10:15;155160.84;;;19.74;71.72
23059;BME280;30585;51.502;7.218;2022-08-14T01:12:44;155146.53;;;19.69;70.87
23059;BME280;30585;51.502;7.218;2022-08-14T01:15:14;155140.06;;;19.66;72.24
23059;BME280;30585;51.502;7.218;2022-08-14T01:17:58;155111.44;;;19.55;71.85
23059;BME280;30585;51.502;7.218;2022-08-14T01:20:44;155106.22;;;19.53;71.53
23059;BME280;30585;51.502;7.218;2022-08-14T01:23:35;155119.25;;;19.58;71.81
23059;BME280;30585;51.502;7.218;2022-08-14T01:26:13;155080.28;;;19.42;73.80
23059;BME280;30585;51.502;7.218;2022-08-14T01:29:01;155076.34;;;19.41;73.29
23059;BME280;30585;51.502;7.218;2022-08-14T01:31:31;155072.47;;;19.39;72.66
23059;BME280;30585;51.502;7.218;2022-08-14T01:34:05;155080.28;;;19.42;72.33
23059;BME280;30585;51.502;7.218;2022-08-14T01:36:52;155093.25;;;19.48;72.28
23059;BME280;30585;51.502;7.218;2022-08-14T01:39:22;155095.84;;;19.49;72.98
23059;BME280;30585;51.502;7.218;2022-08-14T01:41:50;155072.47;;;19.39;73.59
23059;BME280;30585;51.502;7.218;2022-08-14T01:44:25;155080.28;;;19.42;73.74
23059;BME280;30585;51.502;7.218;2022-08-14T01:47:02;155080.28;;;19.42;71.62
23059;BME280;30585;51.502;7.218;2022-08-14T01:49:48;155086.75;;;19.45;72.57
23059;BME280;30585;51.502;7.218;2022-08-14T01:52:30;155085.44;;;19.44;72.83
23059;BME280;30585;51.502;7.218;2022-08-14T01:55:19;155077.66;;;19.41;72.40
23059;BME280;30585;51.502;7.218;2022-08-14T01:57:49;155068.56;;;19.38;72.48
23059;BME280;30585;51.502;7.218;2022-08-14T02:00:37;155076.34;;;19.41;72.54
23059;BME280;30585;51.502;7.218;2022-08-14T02:03:05;155060.75;;;19.35;73.37
23059;BME280;30585;51.502;7.218;2022-08-14T02:05:35;155056.88;;;19.33;73.63
23059;BME280;30585;51.502;7.218;2022-08-14T02:08:04;155036.03;;;19.25;73.38
23059;BME280;30585;51.502;7.218;2022-08-14T02:10:38;155010.03;;;19.14;75.74
23059;BME280;30585;51.502;7.218;2022-08-14T02:13:14;154995.78;;;19.09;75.87
23059;BME280;30585;51.502;7.218;2022-08-14T02:15:42;154999.66;;;19.10;74.67
23059;BME280;30585;51.502;7.218;2022-08-14T02:18:14;155006.16;;;19.13;75.01
23059;BME280;30585;51.502;7.218;2022-08-14T02:20:43;155006.16;;;19.13;74.69
23059;BME280;30585;51.502;7.218;2022-08-14T02:23:13;154990.56;;;19.07;75.55
23059;BME280;30585;51.502;7.218;2022-08-14T02:25:56;154981.50;;;19.03;75.35
23059;BME280;30585;51.502;7.218;2022-08-14T02:28:46;154935.94;;;18.85;77.41
23059;BME280;30585;51.502;7.218;2022-08-14T02:31:24;154933.31;;;18.84;77.81
23059;BME280;30585;51.502;7.218;2022-08-14T02:34:12;154903.44;;;18.72;77.93
23059;BME280;30585;51.502;7.218;2022-08-14T02:36:53;154885.28;;;18.65;78.35
23059;BME280;30585;51.502;7.218;2022-08-14T02:39:33;154859.28;;;18.55;80.13
23059;BME280;30585;51.502;7.218;2022-08-14T02:42:05;154820.28;;;18.39;79.98
23059;BME280;30585;51.502;7.218;2022-08-14T02:44:39;154805.97;;;18.33;80.52
23059;BME280;30585;51.502;7.218;2022-08-14T02:47:09;154802.09;;;18.32;80.18
23059;BME280;30585;51.502;7.218;2022-08-14T02:49:44;154795.63;;;18.29;82.57
23059;BME280;30585;51.502;7.218;2022-08-14T02:52:21;154786.53;;;18.26;82.09
23059;BME280;30585;51.502;7.218;2022-08-14T02:55:09;154803.38;;;18.32;81.46
23059;BME280;30585;51.502;7.218;2022-08-14T02:57:38;154796.88;;;18.30;81.50
23059;BME280;30585;51.502;7.218;2022-08-14T03:00:08;154805.97;;;18.33;81.63
23059;BME280;30585;51.502;7.218;2022-08-14T03:02:44;154813.78;;;18.36;81.10
23059;BME280;30585;51.502;7.218;2022-08-14T03:05:25;154803.38;;;18.32;80.78
23059;BME280;30585;51.502;7.218;2022-08-14T03:08:05;154778.72;;;18.22;82.09
23059;BME280;30585;51.502;7.218;2022-08-14T03:10:33;154763.16;;;18.16;83.33
23059;BME280;30585;51.502;7.218;2022-08-14T03:13:03;154734.56;;;18.05;83.20
23059;BME280;30585;51.502;7.218;2022-08-14T03:15:39;154699.44;;;17.91;83.06
23059;BME280;30585;51.502;7.218;2022-08-14T03:18:10;154682.56;;;17.84;84.42
23059;BME280;30585;51.502;7.218;2022-08-14T03:20:43;154679.94;;;17.83;83.90
23059;BME280;30585;51.502;7.218;2022-08-14T03:23:11;154643.63;;;17.69;86.63
23059;BME280;30585;51.502;7.218;2022-08-14T03:25:42;154604.63;;;17.53;87.14
23059;BME280;30585;51.502;7.218;2022-08-14T03:28:11;154590.34;;;17.48;87.76
23059;BME280;30585;51.502;7.218;2022-08-14T03:30:55;154559.22;;;17.35;88.22
23059;BME280;30585;51.502;7.218;2022-08-14T03:33:25;154537.13;;;17.26;87.44
23059;BME280;30585;51.502;7.218;2022-08-14T03:36:04;154498.19;;;17.11;88.93
23059;BME280;30585;51.502;7.218;2022-08-14T03:38:57;154500.81;;;17.12;89.37
23059;BME280;30585;51.502;7.218;2022-08-14T03:41:45;154472.22;;;17.01;90.24
23059;BME280;30585;51.502;7.218;2022-08-14T03:44:15;154463.16;;;16.97;90.04
23059;BME280;30585;51.502;7.218;2022-08-14T03:47:03;154448.81;;;16.91;90.48
23059;BME280;30585;51.502;7.218;2022-08-14T03:49:33;154428.06;;;16.83;91.41
23059;BME280;30585;51.502;7.218;2022-08-14T03:52:08;154415.06;;;16.78;92.60
23059;BME280;30585;51.502;7.218;2022-08-14T03:54:56;154407.25;;;16.75;93.25
23059;BME280;30585;51.502;7.218;2022-08-14T03:57:25;154395.56;;;16.70;93.14
23059;BME280;30585;51.502;7.218;2022-08-14T04:00:07;154376.13;;;16.62;93.66
23059;BME280;30585;51.502;7.218;2022-08-14T04:02:53;154361.88;;;16.57;93.70
23059;BME280;30585;51.502;7.218;2022-08-14T04:05:21;154359.25;;;16.56;94.76
23059;BME280;30585;51.502;7.218;2022-08-14T04:07:48;154342.38;;;16.49;95.81
23059;BME280;30585;51.502;7.218;2022-08-14T04:10:36;154329.44;;;16.44;95.57
23059;BME280;30585;51.502;7.218;2022-08-14T04:13:05;154274.91;;;16.22;94.69
23059;BME280;30585;51.502;7.218;2022-08-14T04:15:34;154321.63;;;16.41;95.50
23059;BME280;30585;51.502;7.218;2022-08-14T04:18:21;154307.34;;;16.35;97.08
23059;BME280;30585;51.502;7.218;2022-08-14T04:20:49;154295.69;;;16.30;96.15
23059;BME280;30585;51.502;7.218;2022-08-14T04:23:22;154282.72;;;16.25;96.21
23059;BME280;30585;51.502;7.218;2022-08-14T04:25:59;154285.28;;;16.26;97.28
23059;BME280;30585;51.502;7.218;2022-08-14T04:28:26;154287.88;;;16.27;98.04
23059;BME280;30585;51.502;7.218;2022-08-14T04:31:16;154285.28;;;16.26;97.74
23059;BME280;30585;51.502;7.218;2022-08-14T04:34:04;154269.72;;;16.20;97.70
23059;BME280;30585;51.502;7.218;2022-08-14T04:36:37;154273.59;;;16.22;99.09
23059;BME280;30585;51.502;7.218;2022-08-14T04:39:25;154267.13;;;16.19;98.44
23059;BME280;30585;51.502;7.218;2022-08-14T04:42:12;154248.97;;;16.12;98.88
23059;BME280;30585;51.502;7.218;2022-08-14T04:44:57;154251.56;;;16.13;100.00
23059;BME280;30585;51.502;7.218;2022-08-14T04:47:28;154264.53;;;16.18;100.00
23059;BME280;30585;51.502;7.218;2022-08-14T04:50:19;154256.78;;;16.15;100.00
23059;BME280;30585;51.502;7.218;2022-08-14T04:53:01;154261.91;;;16.17;99.68
23059;BME280;30585;51.502;7.218;2022-08-14T04:55:30;154267.13;;;16.19;100.00
23059;BME280;30585;51.502;7.218;2022-08-14T04:57:59;154277.53;;;16.23;100.00
23059;BME280;30585;51.502;7.218;2022-08-14T05:00:28;154290.47;;;16.28;100.00
23059;BME280;30585;51.502;7.218;2022-08-14T05:02:57;154285.28;;;16.26;100.00
23059;BME280;30585;51.502;7.218;2022-08-14T05:05:33;154300.88;;;16.32;100.00
23059;BME280;30585;51.502;7.218;2022-08-14T05:08:05;154300.88;;;16.32;100.00
23059;BME280;30585;51.502;7.218;2022-08-14T05:10:35;154307.34;;;16.35;100.00
23059;BME280;30585;51.502;7.218;2022-08-14T05:13:09;154317.75;;;16.39;100.00
23059;BME280;30585;51.502;7.218;2022-08-14T05:15:41;154330.69;;;16.44;100.00
23059;BME280;30585;51.502;7.218;2022-08-14T05:18:16;154386.50;;;16.66;100.00
23059;BME280;30585;51.502;7.218;2022-08-14T05:21:06;154415.06;;;16.78;100.00
23059;BME280;30585;51.502;7.218;2022-08-14T05:23:54;154428.06;;;16.83;99.63
23059;BME280;30585;51.502;7.218;2022-08-14T05:26:22;154493.00;;;17.09;99.24
23059;BME280;30585;51.502;7.218;2022-08-14T05:28:50;154524.16;;;17.21;97.65
23059;BME280;30585;51.502;7.218;2022-08-14T05:31:18;154556.63;;;17.34;97.92
23059;BME280;30585;51.502;7.218;2022-08-14T05:33:48;154611.09;;;17.56;97.43
23059;BME280;30585;51.502;7.218;2022-08-14T05:36:22;154657.91;;;17.74;95.47
23059;BME280;30585;51.502;7.218;2022-08-14T05:38:51;154705.94;;;17.94;95.44
23059;BME280;30585;51.502;7.218;2022-08-14T05:41:20;154734.56;;;18.05;94.81
23059;BME280;30585;51.502;7.218;2022-08-14T05:43:59;154776.13;;;18.21;95.19
23059;BME280;30585;51.502;7.218;2022-08-14T05:46:27;154825.47;;;18.41;93.75
23059;BME280;30585;51.502;7.218;2022-08-14T05:48:57;154881.34;;;18.63;92.49
23059;BME280;30585;51.502;7.218;2022-08-14T05:51:26;154930.72;;;18.83;91.76
23059;BME280;30585;51.502;7.218;2022-08-14T05:53:56;154974.94;;;19.00;91.34
23059;BME280;30585;51.502;7.218;2022-08-14T05:56:39;154981.50;;;19.03;90.32
23059;BME280;30585;51.502;7.218;2022-08-14T05:59:07;155078.94;;;19.42;87.95
23059;BME280;30585;51.502;7.218;2022-08-14T06:01:36;155132.25;;;19.63;87.19
23059;BME280;30585;51.502;7.218;2022-08-14T06:04:05;155162.19;;;19.75;87.14
23059;BME280;30585;51.502;7.218;2022-08-14T06:06:33;155214.25;;;19.96;85.22
23059;BME280;30585;51.502;7.218;2022-08-14T06:09:04;155255.84;;;20.12;85.01
23059;BME280;30585;51.502;7.218;2022-08-14T06:11:35;155296.19;;;20.28;85.78
23059;BME280;30585;51.502;7.218;2022-08-14T06:14:03;155344.28;;;20.47;83.52
23059;BME280;30585;51.502;7.218;2022-08-14T06:16:46;155300.06;;;20.30;83.15
23059;BME280;30585;51.502;7.218;2022-08-14T06:19:15;155382.00;;;20.62;84.21
23059;BME280;30585;51.502;7.218;2022-08-14T06:21:44;155418.50;;;20.77;81.58
23059;BME280;30585;51.502;7.218;2022-08-14T06:24:13;155462.75;;;20.94;80.06
23059;BME280;30585;51.502;7.218;2022-08-14T06:26:44;155525.19;;;21.19;79.56
23059;BME280;30585;51.502;7.218;2022-08-14T06:29:19;155583.75;;;21.42;79.55
23059;BME280;30585;51.502;7.218;2022-08-14T06:31:49;155556.44;;;21.31;79.04
23059;BME280;30585;51.502;7.218;2022-08-14T06:34:27;155595.44;;;21.47;79.71
23059;BME280;30585;51.502;7.218;2022-08-14T06:37:15;155695.78;;;21.87;78.41
23059;BME280;30585;51.502;7.218;2022-08-14T06:39:44;155733.53;;;22.02;77.45
23059;BME280;30585;51.502;7.218;2022-08-14T06:42:12;155680.13;;;21.81;77.42
23059;BME280;30585;51.502;7.218;2022-08-14T06:44:58;155788.19;;;22.23;77.01
23059;BME280;30585;51.502;7.218;2022-08-14T06:47:28;155880.72;;;22.60;74.40
23059;BME280;30585;51.502;7.218;2022-08-14T06:49:57;155941.94;;;22.84;73.44
23059;BME280;30585;51.502;7.218;2022-08-14T06:52:25;156003.16;;;23.09;72.91
23059;BME280;30585;51.502;7.218;2022-08-14T06:54:54;156069.69;;;23.35;71.64
23059;BME280;30585;51.502;7.218;2022-08-14T06:57:24;156132.19;;;23.60;71.30
23059;BME280;30585;51.502;7.218;2022-08-14T06:59:52;156147.88;;;23.66;69.78
23059;BME280;30585;51.502;7.218;2022-08-14T07:02:21;156170.00;;;23.75;67.35
23059;BME280;30585;51.502;7.218;2022-08-14T07:05:10;156205.19;;;23.89;68.19
23059;BME280;30585;51.502;7.218;2022-08-14T07:07:55;156275.63;;;24.17;68.61
23059;BME280;30585;51.502;7.218;2022-08-14T07:10:25;156335.63;;;24.40;67.96
23059;BME280;30585;51.502;7.218;2022-08-14T07:12:52;156379.94;;;24.58;65.18
23059;BME280;30585;51.502;7.218;2022-08-14T07:15:30;156391.69;;;24.63;65.76
23059;BME280;30585;51.502;7.218;2022-08-14T07:18:06;156132.19;;;23.60;67.81
23059;BME280;30585;51.502;7.218;2022-08-14T07:20:37;156299.09;;;24.26;67.40
23059;BME280;30585;51.502;7.218;2022-08-14T07:23:08;156395.56;;;24.64;65.82
23059;BME280;30585;51.502;7.218;2022-08-14T07:25:48;156475.22;;;24.96;64.89
23059;BME280;30585;51.502;7.218;2022-08-14T07:28:19;156391.69;;;24.63;64.70
23059;BME280;30585;51.502;7.218;2022-08-14T07:30:49;156503.84;;;25.07;63.27
23059;BME280;30585;51.502;7.218;2022-08-14T07:33:19;156514.31;;;25.11;63.52
23059;BME280;30585;51.502;7.218;2022-08-14T07:35:58;156486.94;;;25.00;62.56
23059;BME280;30585;51.502;7.218;2022-08-14T07:38:27;156569.09;;;25.33;62.39
23059;BME280;30585;51.502;7.218;2022-08-14T07:41:03;156647.41;;;25.64;61.36
23059;BME280;30585;51.502;7.218;2022-08-14T07:43:40;156696.97;;;25.83;60.84
23059;BME280;30585;51.502;7.218;2022-08-14T07:46:10;156742.66;;;26.02;60.11
23059;BME280;30585;51.502;7.218;2022-08-14T07:48:38;156804.06;;;26.26;60.13
23059;BME280;30585;51.502;7.218;2022-08-14T07:51:08;156805.34;;;26.26;59.07
23059;BME280;30585;51.502;7.218;2022-08-14T07:53:37;156873.25;;;26.53;61.07
23059;BME280;30585;51.502;7.218;2022-08-14T07:56:06;156946.41;;;26.82;58.36
23059;BME280;30585;51.502;7.218;2022-08-14T07:58:56;156939.84;;;26.80;58.21
23059;BME280;30585;51.502;7.218;2022-08-14T08:01:24;157011.66;;;27.08;57.74
23059;BME280;30585;51.502;7.218;2022-08-14T08:03:56;157011.66;;;27.08;56.63
23059;BME280;30585;51.502;7.218;2022-08-14T08:06:28;157061.28;;;27.28;54.61
23059;BME280;30585;51.502;7.218;2022-08-14T08:08:58;156975.09;;;26.94;57.91
23059;BME280;30585;51.502;7.218;2022-08-14T08:11:31;157022.13;;;27.12;59.37
23059;BME280;30585;51.502;7.218;2022-08-14T08:14:04;157124.00;;;27.52;56.18
23059;BME280;30585;51.502;7.218;2022-08-14T08:16:44;157139.72;;;27.59;54.22
23059;BME280;30585;51.502;7.218;2022-08-14T08:19:16;157057.38;;;27.26;54.75
23059;BME280;30585;51.502;7.218;2022-08-14T08:21:46;157156.66;;;27.65;53.72
23059;BME280;30585;51.502;7.218;2022-08-14T08:24:14;157212.84;;;27.88;52.27
23059;BME280;30585;51.502;7.218;2022-08-14T08:26:46;157235.03;;;27.96;53.12
23059;BME280;30585;51.502;7.218;2022-08-14T08:29:18;157252.03;;;28.03;52.82
23059;BME280;30585;51.502;7.218;2022-08-14T08:31:55;157314.75;;;28.28;52.05
23059;BME280;30585;51.502;7.218;2022-08-14T08:34:41;157360.50;;;28.46;51.74
23059;BME280;30585;51.502;7.218;2022-08-14T08:37:13;157401.03;;;28.62;51.08
23059;BME280;30585;51.502;7.218;2022-08-14T08:39:42;157343.50;;;28.39;50.40
23059;BME280;30585;51.502;7.218;2022-08-14T08:42:30;157108.34;;;27.46;51.90
23059;BME280;30585;51.502;7.218;2022-08-14T08:45:07;157266.44;;;28.09;53.56
23059;BME280;30585;51.502;7.218;2022-08-14T08:47:38;157380.13;;;28.54;52.62
23059;BME280;30585;51.502;7.218;2022-08-14T08:50:19;157495.16;;;28.99;49.24
23059;BME280;30585;51.502;7.218;2022-08-14T08:52:59;157586.69;;;29.35;47.89
23059;BME280;30585;51.502;7.218;2022-08-14T08:55:30;157573.59;;;29.30;50.29
23059;BME280;30585;51.502;7.218;2022-08-14T08:58:01;157657.28;;;29.63;49.62
23059;BME280;30585;51.502;7.218;2022-08-14T09:00:32;157679.53;;;29.72;47.68
23059;BME280;30585;51.502;7.218;2022-08-14T09:03:04;157631.13;;;29.53;48.33
23059;BME280;30585;51.502;7.218;2022-08-14T09:05:37;157639.00;;;29.56;48.62
23059;BME280;30585;51.502;7.218;2022-08-14T09:08:11;157500.41;;;29.01;48.02
23059;BME280;30585;51.502;7.218;2022-08-14T09:10:59;157576.22;;;29.31;49.14
23059;BME280;30585;51.502;7.218;2022-08-14T09:13:27;157465.13;;;28.87;48.05
23059;BME280;30585;51.502;7.218;2022-08-14T09:15:59;157688.69;;;29.76;47.40
23059;BME280;30585;51.502;7.218;2022-08-14T09:18:45;157801.22;;;30.20;45.87
23059;BME280;30585;51.502;7.218;2022-08-14T09:21:13;157788.13;;;30.15;45.40
23059;BME280;30585;51.502;7.218;2022-08-14T09:23:44;157822.13;;;30.28;44.44
23059;BME280;30585;51.502;7.218;2022-08-14T09:26:32;157805.13;;;30.22;46.28
23059;BME280;30585;51.502;7.218;2022-08-14T09:29:00;157822.13;;;30.28;44.04
23059;BME280;30585;51.502;7.218;2022-08-14T09:31:29;157860.06;;;30.43;43.18
23059;BME280;30585;51.502;7.218;2022-08-14T09:34:21;157879.66;;;30.51;44.74
23059;BME280;30585;51.502;7.218;2022-08-14T09:37:16;157803.78;;;30.21;44.05
23059;BME280;30585;51.502;7.218;2022-08-14T09:39:59;157862.63;;;30.44;44.15
23059;BME280;30585;51.502;7.218;2022-08-14T09:42:44;158013.16;;;31.04;43.37
23059;BME280;30585;51.502;7.218;2022-08-14T09:45:18;158106.06;;;31.40;42.23
23059;BME280;30585;51.502;7.218;2022-08-14T09:47:50;158028.84;;;31.10;40.64
23059;BME280;30585;51.502;7.218;2022-08-14T09:50:22;158108.69;;;31.42;42.60
23059;BME280;30585;51.502;7.218;2022-08-14T09:52:54;158150.59;;;31.58;40.95
23059;BME280;30585;51.502;7.218;2022-08-14T09:55:25;158188.63;;;31.73;42.12
23059;BME280;30585;51.502;7.218;2022-08-14T09:58:10;158157.13;;;31.61;39.55
23059;BME280;30585;51.502;7.218;2022-08-14T10:00:47;158188.63;;;31.73;38.95
23059;BME280;30585;51.502;7.218;2022-08-14T10:03:26;158060.31;;;31.22;38.64
23059;BME280;30585;51.502;7.218;2022-08-14T10:06:06;158062.94;;;31.23;37.97
23059;BME280;30585;51.502;7.218;2022-08-14T10:08:46;158065.56;;;31.24;39.72
23059;BME280;30585;51.502;7.218;2022-08-14T10:11:20;158158.44;;;31.61;39.48
23059;BME280;30585;51.502;7.218;2022-08-14T10:13:50;158201.69;;;31.78;38.58
23059;BME280;30585;51.502;7.218;2022-08-14T10:16:22;158226.56;;;31.88;38.59
23059;BME280;30585;51.502;7.218;2022-08-14T10:19:04;158129.69;;;31.50;37.43
23059;BME280;30585;51.502;7.218;2022-08-14T10:21:36;158176.84;;;31.68;37.11
23059;BME280;30585;51.502;7.218;2022-08-14T10:24:26;157968.69;;;30.86;39.49
23059;BME280;30585;51.502;7.218;2022-08-14T10:27:04;157968.69;;;30.86;40.74
23059;BME280;30585;51.502;7.218;2022-08-14T10:29:43;158117.91;;;31.45;38.68
23059;BME280;30585;51.502;7.218;2022-08-14T10:32:11;158171.53;;;31.66;37.90
23059;BME280;30585;51.502;7.218;2022-08-14T10:34:45;158293.28;;;32.14;38.04
23059;BME280;30585;51.502;7.218;2022-08-14T10:37:18;158438.69;;;32.72;37.50
23059;BME280;30585;51.502;7.218;2022-08-14T10:39:58;158430.81;;;32.69;36.21
23059;BME280;30585;51.502;7.218;2022-08-14T10:42:48;158425.56;;;32.67;36.34
23059;BME280;30585;51.502;7.218;2022-08-14T10:45:20;158155.81;;;31.60;37.19
23059;BME280;30585;51.502;7.218;2022-08-14T10:47:50;158430.81;;;32.69;36.27
23059;BME280;30585;51.502;7.218;2022-08-14T10:50:40;158373.22;;;32.46;36.25
23059;BME280;30585;51.502;7.218;2022-08-14T10:53:12;158470.16;;;32.84;35.94
23059;BME280;30585;51.502;7.218;2022-08-14T10:55:41;158235.72;;;31.92;36.28
23059;BME280;30585;51.502;7.218;2022-08-14T10:58:12;158049.81;;;31.18;37.14
23059;BME280;30585;51.502;7.218;2022-08-14T11:00:53;158415.13;;;32.62;37.02
23059;BME280;30585;51.502;7.218;2022-08-14T11:03:23;158273.69;;;32.07;37.48
23059;BME280;30585;51.502;7.218;2022-08-14T11:06:16;158498.94;;;32.96;35.55
23059;BME280;30585;51.502;7.218;2022-08-14T11:08:47;158515.97;;;33.02;37.12
23059;BME280;30585;51.502;7.218;2022-08-14T11:11:17;158330.00;;;32.29;36.50
23059;BME280;30585;51.502;7.218;2022-08-14T11:13:46;158421.66;;;32.65;36.79
23059;BME280;30585;51.502;7.218;2022-08-14T11:16:16;158576.25;;;33.26;34.59
23059;BME280;30585;51.502;7.218;2022-08-14T11:18:46;158563.13;;;33.21;34.14
23059;BME280;30585;51.502;7.218;2022-08-14T11:21:17;158530.38;;;33.08;34.53
23059;BME280;30585;51.502;7.218;2022-08-14T11:23:47;158526.47;;;33.06;33.75
23059;BME280;30585;51.502;7.218;2022-08-14T11:26:24;158643.03;;;33.52;34.04
23059;BME280;30585;51.502;7.218;2022-08-14T11:28:57;158681.03;;;33.67;34.43
23059;BME280;30585;51.502;7.218;2022-08-14T11:31:29;158443.94;;;32.74;35.05
23059;BME280;30585;51.502;7.218;2022-08-14T11:34:04;158460.97;;;32.81;35.97
23059;BME280;30585;51.502;7.218;2022-08-14T11:36:52;158413.78;;;32.62;36.58
23059;BME280;30585;51.502;7.218;2022-08-14T11:39:41;158505.53;;;32.98;34.91
23059;BME280;30585;51.502;7.218;2022-08-14T11:42:19;158034.13;;;31.12;36.27
23059;BME280;30585;51.502;7.218;2022-08-14T11:45:09;158203.00;;;31.79;39.07
23059;BME280;30585;51.502;7.218;2022-08-14T11:47:44;158459.69;;;32.80;34.61
23059;BME280;30585;51.502;7.218;2022-08-14T11:50:33;158591.94;;;33.32;33.80
23059;BME280;30585;51.502;7.218;2022-08-14T11:53:04;158658.81;;;33.59;33.75
23059;BME280;30585;51.502;7.218;2022-08-14T11:55:34;158783.28;;;34.08;33.21
23059;BME280;30585;51.502;7.218;2022-08-14T11:58:05;158662.72;;;33.60;33.52
23059;BME280;30585;51.502;7.218;2022-08-14T12:00:47;158487.16;;;32.91;32.27
23059;BME280;30585;51.502;7.218;2022-08-14T12:03:15;158569.66;;;33.23;35.35
23059;BME280;30585;51.502;7.218;2022-08-14T12:06:04;158660.09;;;33.59;35.00
23059;BME280;30585;51.502;7.218;2022-08-14T12:08:54;158789.81;;;34.10;35.37
23059;BME280;30585;51.502;7.218;2022-08-14T12:11:37;158909.13;;;34.57;32.64
23059;BME280;30585;51.502;7.218;2022-08-14T12:14:12;158867.22;;;34.41;31.98
23059;BME280;30585;51.502;7.218;2022-08-14T12:17:03;159065.13;;;35.19;32.18
23059;BME280;30585;51.502;7.218;2022-08-14T12:19:46;159073.03;;;35.22;30.70
23059;BME280;30585;51.502;7.218;2022-08-14T12:22:31;159194.97;;;35.70;30.66
23059;BME280;30585;51.502;7.218;2022-08-14T12:25:00;159194.97;;;35.70;30.04
23059;BME280;30585;51.502;7.218;2022-08-14T12:27:37;159196.31;;;35.70;30.78
23059;BME280;30585;51.502;7.218;2022-08-14T12:30:08;158864.59;;;34.40;32.45
23059;BME280;30585;51.502;7.218;2022-08-14T12:32:40;159035.00;;;35.07;32.47
23059;BME280;30585;51.502;7.218;2022-08-14T12:35:10;159052.06;;;35.14;31.49
23059;BME280;30585;51.502;7.218;2022-08-14T12:37:46;158885.53;;;34.48;31.55
23059;BME280;30585;51.502;7.218;2022-08-14T12:40:17;158859.28;;;34.38;31.79
23059;BME280;30585;51.502;7.218;2022-08-14T12:42:50;158669.25;;;33.63;34.37
23059;BME280;30585;51.502;7.218;2022-08-14T12:45:29;158762.31;;;33.99;33.37
23059;BME280;30585;51.502;7.218;2022-08-14T12:48:03;158814.75;;;34.20;32.47
23059;BME280;30585;51.502;7.218;2022-08-14T12:50:48;158741.38;;;33.91;33.71
23059;BME280;30585;51.502;7.218;2022-08-14T12:53:18;158993.06;;;34.90;33.13
23059;BME280;30585;51.502;7.218;2022-08-14T12:55:58;158935.34;;;34.68;32.47
23059;BME280;30585;51.502;7.218;2022-08-14T12:58:48;158964.19;;;34.79;32.97
23059;BME280;30585;51.502;7.218;2022-08-14T13:01:21;158930.09;;;34.66;31.01
23059;BME280;30585;51.502;7.218;2022-08-14T13:04:02;159040.25;;;35.09;31.36
23059;BME280;30585;51.502;7.218;2022-08-14T13:06:32;159076.94;;;35.23;31.34
23059;BME280;30585;51.502;7.218;2022-08-14T13:09:02;159100.53;;;35.33;30.91
23059;BME280;30585;51.502;7.218;2022-08-14T13:11:38;159286.84;;;36.06;31.51
23059;BME280;30585;51.502;7.218;2022-08-14T13:14:11;159277.63;;;36.02;30.88
23059;BME280;30585;51.502;7.218;2022-08-14T13:16:44;159193.69;;;35.69;29.34
23059;BME280;30585;51.502;7.218;2022-08-14T13:19:18;159236.97;;;35.86;30.17
23059;BME280;30585;51.502;7.218;2022-08-14T13:21:51;159281.59;;;36.04;29.98
23059;BME280;30585;51.502;7.218;2022-08-14T13:24:32;159158.28;;;35.55;30.48
23059;BME280;30585;51.502;7.218;2022-08-14T13:27:01;159118.88;;;35.40;29.67
23059;BME280;30585;51.502;7.218;2022-08-14T13:29:38;159046.81;;;35.12;32.02
23059;BME280;30585;51.502;7.218;2022-08-14T13:32:12;159113.66;;;35.38;31.31